sensor_id;sensor_type;location;lat;lon;timestamp;temperature;humidity
55634;DHT22;41504;53.162;6.788;2022-09-17T00:01:20;11.90;81.90
55634;DHT22;41504;53.162;6.788;2022-09-17T00:03:54;11.90;81.50
55634;DHT22;41504;53.162;6.788;2022-09-17T00:06:21;11.80;82.50
55634;DHT22;41504;53.162;6.788;2022-09-17T00:08:47;11.80;82.30
55634;DHT22;41504;53.162;6.788;2022-09-17T00:11:29;11.70;82.60
55634;DHT22;41504;53.162;6.788;2022-09-17T00:13:58;11.70;81.40
55634;DHT22;41504;53.162;6.788;2022-09-17T00:16:38;11.70;81.90
55634;DHT22;41504;53.162;6.788;2022-09-17T00:19:06;11.70;81.20
55634;DHT22;41504;53.162;6.788;2022-09-17T00:21:32;11.80;81.50
55634;DHT22;41504;53.162;6.788;2022-09-17T00:24:02;11.70;82.30
55634;DHT22;41504;53.162;6.788;2022-09-17T00:26:29;11.70;81.80
55634;DHT22;41504;53.162;6.788;2022-09-17T00:28:57;11.70;81.90
55634;DHT22;41504;53.162;6.788;2022-09-17T00:31:24;11.70;81.90
55634;DHT22;41504;53.162;6.788;2022-09-17T00:33:50;11.70;82.00
55634;DHT22;41504;53.162;6.788;2022-09-17T00:36:16;11.70;81.60
55634;DHT22;41504;53.162;6.788;2022-09-17T00:38:42;11.70;80.70
55634;DHT22;41504;53.162;6.788;2022-09-17T00:41:08;11.80;79.70
55634;DHT22;41504;53.162;6.788;2022-09-17T00:43:47;11.90;79.00
55634;DHT22;41504;53.162;6.788;2022-09-17T00:46:33;11.90;78.90
55634;DHT22;41504;53.162;6.788;2022-09-17T00:49:23;11.90;79.40
55634;DHT22;41504;53.162;6.788;2022-09-17T00:52:00;11.80;79.30
55634;DHT22;41504;53.162;6.788;2022-09-17T00:54:28;11.80;79.90
55634;DHT22;41504;53.162;6.788;2022-09-17T00:56:54;11.80;80.10
55634;DHT22;41504;53.162;6.788;2022-09-17T00:59:21;11.70;80.00
55634;DHT22;41504;53.162;6.788;2022-09-17T01:01:48;11.70;79.90
55634;DHT22;41504;53.162;6.788;2022-09-17T01:04:18;11.70;80.00
55634;DHT22;41504;53.162;6.788;2022-09-17T01:29:30;11.40;81.00
55634;DHT22;41504;53.162;6.788;2022-09-17T01:31:50;11.30;81.40
55634;DHT22;41504;53.162;6.788;2022-09-17T01:34:37;11.30;81.70
55634;DHT22;41504;53.162;6.788;2022-09-17T01:37:13;11.30;82.00
55634;DHT22;41504;53.162;6.788;2022-09-17T01:42:46;11.10;82.40
55634;DHT22;41504;53.162;6.788;2022-09-17T01:45:28;11.10;83.20
55634;DHT22;41504;53.162;6.788;2022-09-17T01:47:58;11.10;82.90
55634;DHT22;41504;53.162;6.788;2022-09-17T01:50:28;11.10;83.00
55634;DHT22;41504;53.162;6.788;2022-09-17T01:52:56;11.00;83.00
55634;DHT22;41504;53.162;6.788;2022-09-17T01:55:27;11.10;82.90
55634;DHT22;41504;53.162;6.788;2022-09-17T01:57:56;11.10;82.80
55634;DHT22;41504;53.162;6.788;2022-09-17T02:00:25;11.10;82.80
55634;DHT22;41504;53.162;6.788;2022-09-17T02:03:06;11.10;82.60
55634;DHT22;41504;53.162;6.788;2022-09-17T02:05:48;11.10;82.70
55634;DHT22;41504;53.162;6.788;2022-09-17T02:08:21;11.10;82.70
55634;DHT22;41504;53.162;6.788;2022-09-17T02:11:08;11.10;82.80
55634;DHT22;41504;53.162;6.788;2022-09-17T02:13:55;11.10;82.20
55634;DHT22;41504;53.162;6.788;2022-09-17T02:16:29;11.10;83.20
55634;DHT22;41504;53.162;6.788;2022-09-17T02:19:12;11.10;82.60
55634;DHT22;41504;53.162;6.788;2022-09-17T02:22:01;11.10;82.40
55634;DHT22;41504;53.162;6.788;2022-09-17T02:24:59;11.20;82.30
55634;DHT22;41504;53.162;6.788;2022-09-17T02:30:47;11.10;82.00
55634;DHT22;41504;53.162;6.788;2022-09-17T02:33:13;11.10;82.20
55634;DHT22;41504;53.162;6.788;2022-09-17T02:35:40;11.10;81.70
55634;DHT22;41504;53.162;6.788;2022-09-17T02:38:08;11.10;81.70
55634;DHT22;41504;53.162;6.788;2022-09-17T02:40:41;11.10;81.60
55634;DHT22;41504;53.162;6.788;2022-09-17T02:51:22;11.00;81.90
55634;DHT22;41504;53.162;6.788;2022-09-17T02:59:45;10.90;82.20
55634;DHT22;41504;53.162;6.788;2022-09-17T03:02:38;10.90;82.40
55634;DHT22;41504;53.162;6.788;2022-09-17T03:05:06;10.80;82.60
55634;DHT22;41504;53.162;6.788;2022-09-17T03:07:33;10.70;83.00
55634;DHT22;41504;53.162;6.788;2022-09-17T03:09:59;10.70;83.10
55634;DHT22;41504;53.162;6.788;2022-09-17T03:12:25;10.70;83.10
55634;DHT22;41504;53.162;6.788;2022-09-17T03:14:51;10.70;82.30
55634;DHT22;41504;53.162;6.788;2022-09-17T03:17:17;10.70;81.80
55634;DHT22;41504;53.162;6.788;2022-09-17T03:19:42;10.80;81.00
55634;DHT22;41504;53.162;6.788;2022-09-17T03:22:08;10.80;81.10
55634;DHT22;41504;53.162;6.788;2022-09-17T03:24:34;10.90;81.20
55634;DHT22;41504;53.162;6.788;2022-09-17T03:27:00;10.80;81.30
55634;DHT22;41504;53.162;6.788;2022-09-17T03:29:25;10.80;81.20
55634;DHT22;41504;53.162;6.788;2022-09-17T03:31:51;10.80;81.30
55634;DHT22;41504;53.162;6.788;2022-09-17T03:34:17;10.80;81.30
55634;DHT22;41504;53.162;6.788;2022-09-17T03:36:43;10.80;81.20
55634;DHT22;41504;53.162;6.788;2022-09-17T03:39:08;10.80;81.40
55634;DHT22;41504;53.162;6.788;2022-09-17T03:41:34;10.70;81.50
55634;DHT22;41504;53.162;6.788;2022-09-17T03:44:00;10.70;81.60
55634;DHT22;41504;53.162;6.788;2022-09-17T03:46:26;10.70;81.70
55634;DHT22;41504;53.162;6.788;2022-09-17T03:48:51;10.70;82.00
55634;DHT22;41504;53.162;6.788;2022-09-17T03:51:17;10.60;82.20
55634;DHT22;41504;53.162;6.788;2022-09-17T03:53:43;10.60;82.40
55634;DHT22;41504;53.162;6.788;2022-09-17T03:56:09;10.60;82.60
55634;DHT22;41504;53.162;6.788;2022-09-17T03:58:35;10.60;82.60
55634;DHT22;41504;53.162;6.788;2022-09-17T04:01:00;10.60;82.60
55634;DHT22;41504;53.162;6.788;2022-09-17T04:03:27;10.60;82.70
55634;DHT22;41504;53.162;6.788;2022-09-17T04:05:54;10.60;82.70
55634;DHT22;41504;53.162;6.788;2022-09-17T04:08:20;10.60;82.20
55634;DHT22;41504;53.162;6.788;2022-09-17T04:10:46;10.60;81.50
55634;DHT22;41504;53.162;6.788;2022-09-17T04:13:14;10.60;81.50
55634;DHT22;41504;53.162;6.788;2022-09-17T04:15:40;10.60;81.00
55634;DHT22;41504;53.162;6.788;2022-09-17T04:18:06;10.60;81.00
55634;DHT22;41504;53.162;6.788;2022-09-17T04:20:32;10.60;80.40
55634;DHT22;41504;53.162;6.788;2022-09-17T04:22:58;10.60;79.60
55634;DHT22;41504;53.162;6.788;2022-09-17T04:25:24;10.60;79.70
55634;DHT22;41504;53.162;6.788;2022-09-17T04:27:50;10.60;80.00
55634;DHT22;41504;53.162;6.788;2022-09-17T04:30:16;10.60;79.80
55634;DHT22;41504;53.162;6.788;2022-09-17T04:32:43;10.60;79.40
55634;DHT22;41504;53.162;6.788;2022-09-17T04:35:09;10.60;79.40
55634;DHT22;41504;53.162;6.788;2022-09-17T04:37:35;10.60;79.30
55634;DHT22;41504;53.162;6.788;2022-09-17T04:40:01;10.60;79.10
55634;DHT22;41504;53.162;6.788;2022-09-17T04:42:27;10.70;79.30
55634;DHT22;41504;53.162;6.788;2022-09-17T04:44:52;10.70;79.40
55634;DHT22;41504;53.162;6.788;2022-09-17T04:47:18;10.70;79.80
55634;DHT22;41504;53.162;6.788;2022-09-17T04:49:44;10.70;80.20
55634;DHT22;41504;53.162;6.788;2022-09-17T04:52:10;10.70;80.50
55634;DHT22;41504;53.162;6.788;2022-09-17T04:54:35;10.60;80.80
55634;DHT22;41504;53.162;6.788;2022-09-17T04:57:01;10.60;81.10
55634;DHT22;41504;53.162;6.788;2022-09-17T04:59:27;10.60;81.40
55634;DHT22;41504;53.162;6.788;2022-09-17T05:01:53;10.50;81.50
55634;DHT22;41504;53.162;6.788;2022-09-17T05:04:19;10.40;81.70
55634;DHT22;41504;53.162;6.788;2022-09-17T05:06:45;10.40;81.80
55634;DHT22;41504;53.162;6.788;2022-09-17T05:09:11;10.30;81.80
55634;DHT22;41504;53.162;6.788;2022-09-17T18:21:24;11.50;77.60
55634;DHT22;41504;53.162;6.788;2022-09-17T18:23:50;11.50;79.90
55634;DHT22;41504;53.162;6.788;2022-09-17T18:26:27;11.50;80.60
55634;DHT22;41504;53.162;6.788;2022-09-17T18:28:54;11.60;80.90
55634;DHT22;41504;53.162;6.788;2022-09-17T18:31:24;11.50;81.10
55634;DHT22;41504;53.162;6.788;2022-09-17T18:34:11;11.60;81.70
55634;DHT22;41504;53.162;6.788;2022-09-17T18:36:38;11.60;81.80
55634;DHT22;41504;53.162;6.788;2022-09-17T18:39:09;11.60;81.90
55634;DHT22;41504;53.162;6.788;2022-09-17T18:41:37;11.60;82.20
55634;DHT22;41504;53.162;6.788;2022-09-17T18:44:08;11.60;82.60
55634;DHT22;41504;53.162;6.788;2022-09-17T18:46:34;11.60;82.40
55634;DHT22;41504;53.162;6.788;2022-09-17T18:49:00;11.70;82.50
55634;DHT22;41504;53.162;6.788;2022-09-17T18:51:27;11.60;82.50
55634;DHT22;41504;53.162;6.788;2022-09-17T18:53:53;11.60;82.60
55634;DHT22;41504;53.162;6.788;2022-09-17T18:56:29;11.60;82.70
55634;DHT22;41504;53.162;6.788;2022-09-17T18:58:57;11.60;82.60
55634;DHT22;41504;53.162;6.788;2022-09-17T19:01:25;11.60;82.60
55634;DHT22;41504;53.162;6.788;2022-09-17T19:03:53;11.70;82.50
55634;DHT22;41504;53.162;6.788;2022-09-17T19:06:18;11.70;82.60
55634;DHT22;41504;53.162;6.788;2022-09-17T19:08:45;11.60;82.60
55634;DHT22;41504;53.162;6.788;2022-09-17T19:11:11;11.60;82.60
55634;DHT22;41504;53.162;6.788;2022-09-17T19:13:39;11.60;82.70
55634;DHT22;41504;53.162;6.788;2022-09-17T19:16:06;11.60;83.00
55634;DHT22;41504;53.162;6.788;2022-09-17T19:18:33;11.60;83.10
55634;DHT22;41504;53.162;6.788;2022-09-17T19:21:09;11.50;83.30
55634;DHT22;41504;53.162;6.788;2022-09-17T19:23:42;11.50;83.60
55634;DHT22;41504;53.162;6.788;2022-09-17T19:26:10;11.50;83.70
55634;DHT22;41504;53.162;6.788;2022-09-17T19:28:37;11.40;84.00
55634;DHT22;41504;53.162;6.788;2022-09-17T19:31:04;11.40;84.20
55634;DHT22;41504;53.162;6.788;2022-09-17T19:33:30;11.40;84.30
55634;DHT22;41504;53.162;6.788;2022-09-17T19:36:15;11.40;84.30
55634;DHT22;41504;53.162;6.788;2022-09-17T19:38:42;11.30;84.20
55634;DHT22;41504;53.162;6.788;2022-09-17T19:41:17;11.30;84.30
55634;DHT22;41504;53.162;6.788;2022-09-17T19:43:45;11.40;84.50
55634;DHT22;41504;53.162;6.788;2022-09-17T19:46:17;11.40;84.40
55634;DHT22;41504;53.162;6.788;2022-09-17T19:48:44;11.40;84.40
55634;DHT22;41504;53.162;6.788;2022-09-17T19:51:11;11.40;84.30
55634;DHT22;41504;53.162;6.788;2022-09-17T19:53:41;11.40;84.00
55634;DHT22;41504;53.162;6.788;2022-09-17T19:56:09;11.50;83.80
55634;DHT22;41504;53.162;6.788;2022-09-17T19:58:35;11.50;83.30
55634;DHT22;41504;53.162;6.788;2022-09-17T20:01:01;11.50;82.80
55634;DHT22;41504;53.162;6.788;2022-09-17T20:03:26;11.50;82.40
55634;DHT22;41504;53.162;6.788;2022-09-17T20:06:00;11.60;82.10
55634;DHT22;41504;53.162;6.788;2022-09-17T20:08:26;11.60;82.30
55634;DHT22;41504;53.162;6.788;2022-09-17T20:10:52;11.60;82.60
55634;DHT22;41504;53.162;6.788;2022-09-17T20:13:18;11.60;83.20
55634;DHT22;41504;53.162;6.788;2022-09-17T20:15:44;11.50;83.50
55634;DHT22;41504;53.162;6.788;2022-09-17T20:18:10;11.50;83.60
55634;DHT22;41504;53.162;6.788;2022-09-17T20:20:39;11.40;83.80
55634;DHT22;41504;53.162;6.788;2022-09-17T20:23:05;11.40;84.20
55634;DHT22;41504;53.162;6.788;2022-09-17T20:25:31;11.40;84.40
55634;DHT22;41504;53.162;6.788;2022-09-17T20:27:57;11.30;84.80
55634;DHT22;41504;53.162;6.788;2022-09-17T20:30:22;11.40;85.00
55634;DHT22;41504;53.162;6.788;2022-09-17T20:32:48;11.40;85.00
55634;DHT22;41504;53.162;6.788;2022-09-17T20:35:14;11.40;84.70
55634;DHT22;41504;53.162;6.788;2022-09-17T20:37:41;11.40;84.30
55634;DHT22;41504;53.162;6.788;2022-09-17T20:40:07;11.40;84.10
55634;DHT22;41504;53.162;6.788;2022-09-17T20:42:33;11.40;84.00
55634;DHT22;41504;53.162;6.788;2022-09-17T20:44:59;11.40;83.90
55634;DHT22;41504;53.162;6.788;2022-09-17T20:47:24;11.40;83.80
55634;DHT22;41504;53.162;6.788;2022-09-17T20:49:50;11.40;83.70
55634;DHT22;41504;53.162;6.788;2022-09-17T20:52:18;11.40;83.70
55634;DHT22;41504;53.162;6.788;2022-09-17T20:54:44;11.40;83.80
55634;DHT22;41504;53.162;6.788;2022-09-17T20:57:09;11.50;83.70
55634;DHT22;41504;53.162;6.788;2022-09-17T20:59:35;11.50;83.70
55634;DHT22;41504;53.162;6.788;2022-09-17T21:02:18;11.50;83.90
55634;DHT22;41504;53.162;6.788;2022-09-17T21:04:45;11.40;83.80
55634;DHT22;41504;53.162;6.788;2022-09-17T21:07:11;11.40;84.00
55634;DHT22;41504;53.162;6.788;2022-09-17T21:09:36;11.50;84.30
55634;DHT22;41504;53.162;6.788;2022-09-17T21:12:07;11.40;84.20
55634;DHT22;41504;53.162;6.788;2022-09-17T21:14:34;11.40;84.40
55634;DHT22;41504;53.162;6.788;2022-09-17T21:16:59;11.40;84.20
55634;DHT22;41504;53.162;6.788;2022-09-17T21:19:25;11.40;84.20
55634;DHT22;41504;53.162;6.788;2022-09-17T21:21:54;11.40;84.00
55634;DHT22;41504;53.162;6.788;2022-09-17T21:24:21;11.40;84.10
55634;DHT22;41504;53.162;6.788;2022-09-17T21:26:48;11.40;84.30
55634;DHT22;41504;53.162;6.788;2022-09-17T21:29:16;11.40;84.30
55634;DHT22;41504;53.162;6.788;2022-09-17T21:31:42;11.30;84.20
55634;DHT22;41504;53.162;6.788;2022-09-17T21:34:10;11.30;84.10
55634;DHT22;41504;53.162;6.788;2022-09-17T21:36:37;11.30;84.20
55634;DHT22;41504;53.162;6.788;2022-09-17T21:39:08;11.30;84.30
55634;DHT22;41504;53.162;6.788;2022-09-17T21:41:34;11.20;84.40
55634;DHT22;41504;53.162;6.788;2022-09-17T21:44:00;11.20;84.50
55634;DHT22;41504;53.162;6.788;2022-09-17T21:46:33;11.20;84.50
55634;DHT22;41504;53.162;6.788;2022-09-17T21:48:59;11.10;84.40
55634;DHT22;41504;53.162;6.788;2022-09-17T21:51:32;11.10;84.50
55634;DHT22;41504;53.162;6.788;2022-09-17T21:54:00;11.10;84.40
55634;DHT22;41504;53.162;6.788;2022-09-17T21:56:36;11.10;83.70
55634;DHT22;41504;53.162;6.788;2022-09-17T21:59:08;11.10;84.20
55634;DHT22;41504;53.162;6.788;2022-09-17T22:01:39;11.10;83.90
55634;DHT22;41504;53.162;6.788;2022-09-17T22:04:06;11.10;83.70
55634;DHT22;41504;53.162;6.788;2022-09-17T22:06:33;11.10;83.70
55634;DHT22;41504;53.162;6.788;2022-09-17T22:09:00;11.00;83.60
55634;DHT22;41504;53.162;6.788;2022-09-17T22:11:28;11.10;83.80
55634;DHT22;41504;53.162;6.788;2022-09-17T22:13:56;11.00;84.50
55634;DHT22;41504;53.162;6.788;2022-09-17T22:16:25;11.00;84.00
55634;DHT22;41504;53.162;6.788;2022-09-17T22:18:51;10.90;84.20
55634;DHT22;41504;53.162;6.788;2022-09-17T22:21:20;10.90;84.40
55634;DHT22;41504;53.162;6.788;2022-09-17T22:23:51;10.80;84.60
55634;DHT22;41504;53.162;6.788;2022-09-17T22:26:18;10.80;84.90
55634;DHT22;41504;53.162;6.788;2022-09-17T22:28:46;10.70;85.00
55634;DHT22;41504;53.162;6.788;2022-09-17T22:31:12;10.70;85.20
55634;DHT22;41504;53.162;6.788;2022-09-17T22:33:40;10.60;85.30
55634;DHT22;41504;53.162;6.788;2022-09-17T22:36:14;10.60;85.50
55634;DHT22;41504;53.162;6.788;2022-09-17T22:38:45;10.80;85.70
55634;DHT22;41504;53.162;6.788;2022-09-17T22:41:28;10.60;85.50
55634;DHT22;41504;53.162;6.788;2022-09-17T22:43:59;10.60;85.50
55634;DHT22;41504;53.162;6.788;2022-09-17T22:46:30;10.60;85.60
55634;DHT22;41504;53.162;6.788;2022-09-17T22:48:56;10.50;85.70
55634;DHT22;41504;53.162;6.788;2022-09-17T22:51:23;10.50;85.80
55634;DHT22;41504;53.162;6.788;2022-09-17T22:53:49;10.50;85.90
55634;DHT22;41504;53.162;6.788;2022-09-17T22:56:18;10.50;85.80
55634;DHT22;41504;53.162;6.788;2022-09-17T22:58:45;10.70;85.80
55634;DHT22;41504;53.162;6.788;2022-09-17T23:01:17;10.50;85.70
55634;DHT22;41504;53.162;6.788;2022-09-17T23:03:45;10.50;85.60
55634;DHT22;41504;53.162;6.788;2022-09-17T23:06:14;10.40;85.60
55634;DHT22;41504;53.162;6.788;2022-09-17T23:08:40;10.50;85.70
55634;DHT22;41504;53.162;6.788;2022-09-17T23:11:08;10.50;85.60
55634;DHT22;41504;53.162;6.788;2022-09-17T23:13:39;10.40;85.60
55634;DHT22;41504;53.162;6.788;2022-09-17T23:16:06;10.40;85.50
55634;DHT22;41504;53.162;6.788;2022-09-17T23:18:33;10.40;85.40
55634;DHT22;41504;53.162;6.788;2022-09-17T23:21:02;10.30;85.40
55634;DHT22;41504;53.162;6.788;2022-09-17T23:23:32;10.30;85.30
55634;DHT22;41504;53.162;6.788;2022-09-17T23:26:03;10.30;85.40
55634;DHT22;41504;53.162;6.788;2022-09-17T23:28:29;10.20;85.40
55634;DHT22;41504;53.162;6.788;2022-09-17T23:30:54;10.20;85.40
55634;DHT22;41504;53.162;6.788;2022-09-17T23:33:20;10.20;85.50
55634;DHT22;41504;53.162;6.788;2022-09-17T23:35:46;10.20;85.40
55634;DHT22;41504;53.162;6.788;2022-09-17T23:38:11;10.20;85.50
55634;DHT22;41504;53.162;6.788;2022-09-17T23:40:37;10.20;85.40
55634;DHT22;41504;53.162;6.788;2022-09-17T23:43:03;10.20;85.30
55634;DHT22;41504;53.162;6.788;2022-09-17T23:45:32;10.20;85.10
55634;DHT22;41504;53.162;6.788;2022-09-17T23:47:57;10.30;85.00
55634;DHT22;41504;53.162;6.788;2022-09-17T23:50:23;10.30;84.90
55634;DHT22;41504;53.162;6.788;2022-09-17T23:52:50;10.30;84.80
55634;DHT22;41504;53.162;6.788;2022-09-17T23:55:16;10.30;84.90
55634;DHT22;41504;53.162;6.788;2022-09-17T23:57:42;10.30;84.80
